sensor_id;sensor_type;location;lat;lon;timestamp;P1;durP1;ratioP1;P2;durP2;ratioP2
14933;SDS011;7560;51.364;12.384;2022-12-18T00:02:47;58.60;;;24.23;;
14933;SDS011;7560;51.364;12.384;2022-12-18T00:07:49;56.13;;;24.37;;
14933;SDS011;7560;51.364;12.384;2022-12-18T00:12:51;58.17;;;25.17;;
14933;SDS011;7560;51.364;12.384;2022-12-18T00:17:53;61.50;;;25.20;;
14933;SDS011;7560;51.364;12.384;2022-12-18T00:22:55;56.70;;;23.93;;
14933;SDS011;7560;51.364;12.384;2022-12-18T00:27:57;54.00;;;24.50;;
14933;SDS011;7560;51.364;12.384;2022-12-18T00:32:58;52.17;;;22.90;;
14933;SDS011;7560;51.364;12.384;2022-12-18T00:38:00;57.50;;;23.83;;
14933;SDS011;7560;51.364;12.384;2022-12-18T00:43:02;55.47;;;22.50;;
14933;SDS011;7560;51.364;12.384;2022-12-18T00:48:03;53.57;;;21.30;;
14933;SDS011;7560;51.364;12.384;2022-12-18T00:53:05;55.63;;;22.23;;
14933;SDS011;7560;51.364;12.384;2022-12-18T00:58:07;50.17;;;21.23;;
14933;SDS011;7560;51.364;12.384;2022-12-18T01:03:12;52.33;;;21.67;;
14933;SDS011;7560;51.364;12.384;2022-12-18T01:08:15;50.03;;;21.63;;
14933;SDS011;7560;51.364;12.384;2022-12-18T01:13:17;60.27;;;22.87;;
14933;SDS011;7560;51.364;12.384;2022-12-18T01:18:18;47.63;;;20.67;;
14933;SDS011;7560;51.364;12.384;2022-12-18T01:23:20;47.97;;;20.27;;
14933;SDS011;7560;51.364;12.384;2022-12-18T01:28:21;46.80;;;21.20;;
14933;SDS011;7560;51.364;12.384;2022-12-18T01:33:23;51.00;;;20.43;;
14933;SDS011;7560;51.364;12.384;2022-12-18T01:38:25;42.70;;;20.23;;
14933;SDS011;7560;51.364;12.384;2022-12-18T01:43:47;55.13;;;21.27;;
14933;SDS011;7560;51.364;12.384;2022-12-18T01:49:01;52.07;;;20.43;;
14933;SDS011;7560;51.364;12.384;2022-12-18T01:54:04;52.67;;;20.43;;
14933;SDS011;7560;51.364;12.384;2022-12-18T01:59:06;43.13;;;18.27;;
14933;SDS011;7560;51.364;12.384;2022-12-18T02:04:26;47.77;;;19.63;;
14933;SDS011;7560;51.364;12.384;2022-12-18T02:09:32;46.47;;;19.67;;
14933;SDS011;7560;51.364;12.384;2022-12-18T02:14:43;52.53;;;21.10;;
14933;SDS011;7560;51.364;12.384;2022-12-18T02:25:13;48.50;;;19.37;;
14933;SDS011;7560;51.364;12.384;2022-12-18T02:30:21;42.87;;;18.70;;
14933;SDS011;7560;51.364;12.384;2022-12-18T02:35:24;45.53;;;20.00;;
14933;SDS011;7560;51.364;12.384;2022-12-18T02:40:28;41.27;;;18.30;;
14933;SDS011;7560;51.364;12.384;2022-12-18T02:45:31;44.57;;;18.73;;
14933;SDS011;7560;51.364;12.384;2022-12-18T02:50:37;42.53;;;18.53;;
14933;SDS011;7560;51.364;12.384;2022-12-18T03:01:15;37.97;;;17.50;;
14933;SDS011;7560;51.364;12.384;2022-12-18T03:06:32;43.27;;;18.17;;
14933;SDS011;7560;51.364;12.384;2022-12-18T03:11:39;40.20;;;17.83;;
14933;SDS011;7560;51.364;12.384;2022-12-18T03:17:03;39.33;;;16.40;;
14933;SDS011;7560;51.364;12.384;2022-12-18T03:22:10;38.43;;;17.40;;
14933;SDS011;7560;51.364;12.384;2022-12-18T03:27:13;39.93;;;17.97;;
14933;SDS011;7560;51.364;12.384;2022-12-18T03:32:23;39.27;;;17.90;;
14933;SDS011;7560;51.364;12.384;2022-12-18T03:37:32;37.33;;;16.57;;
14933;SDS011;7560;51.364;12.384;2022-12-18T03:47:53;43.33;;;16.50;;
14933;SDS011;7560;51.364;12.384;2022-12-18T03:58:23;38.70;;;15.97;;
14933;SDS011;7560;51.364;12.384;2022-12-18T04:03:26;34.07;;;15.60;;
14933;SDS011;7560;51.364;12.384;2022-12-18T04:08:31;33.40;;;14.33;;
14933;SDS011;7560;51.364;12.384;2022-12-18T04:13:35;32.27;;;15.93;;
14933;SDS011;7560;51.364;12.384;2022-12-18T04:18:39;32.13;;;14.73;;
14933;SDS011;7560;51.364;12.384;2022-12-18T04:23:41;33.20;;;15.47;;
14933;SDS011;7560;51.364;12.384;2022-12-18T04:28:43;34.57;;;13.90;;
14933;SDS011;7560;51.364;12.384;2022-12-18T04:33:44;30.03;;;14.10;;
14933;SDS011;7560;51.364;12.384;2022-12-18T04:38:46;36.00;;;14.67;;
14933;SDS011;7560;51.364;12.384;2022-12-18T04:43:48;27.00;;;13.43;;
14933;SDS011;7560;51.364;12.384;2022-12-18T04:48:50;26.93;;;13.37;;
14933;SDS011;7560;51.364;12.384;2022-12-18T04:53:51;30.00;;;13.50;;
14933;SDS011;7560;51.364;12.384;2022-12-18T04:58:53;28.37;;;11.67;;
14933;SDS011;7560;51.364;12.384;2022-12-18T05:03:55;25.90;;;12.50;;
14933;SDS011;7560;51.364;12.384;2022-12-18T05:08:57;27.30;;;12.40;;
14933;SDS011;7560;51.364;12.384;2022-12-18T05:13:59;27.17;;;12.87;;
14933;SDS011;7560;51.364;12.384;2022-12-18T05:19:00;25.53;;;12.90;;
14933;SDS011;7560;51.364;12.384;2022-12-18T05:24:02;29.83;;;12.77;;
14933;SDS011;7560;51.364;12.384;2022-12-18T05:29:04;27.60;;;12.17;;
14933;SDS011;7560;51.364;12.384;2022-12-18T05:34:06;27.53;;;11.57;;
14933;SDS011;7560;51.364;12.384;2022-12-18T05:39:08;34.77;;;13.80;;
14933;SDS011;7560;51.364;12.384;2022-12-18T05:44:10;26.63;;;12.97;;
14933;SDS011;7560;51.364;12.384;2022-12-18T05:49:12;23.60;;;12.37;;
14933;SDS011;7560;51.364;12.384;2022-12-18T05:54:14;23.87;;;12.27;;
14933;SDS011;7560;51.364;12.384;2022-12-18T05:59:15;23.23;;;11.97;;
14933;SDS011;7560;51.364;12.384;2022-12-18T06:04:17;20.93;;;11.03;;
14933;SDS011;7560;51.364;12.384;2022-12-18T06:09:19;23.50;;;12.03;;
14933;SDS011;7560;51.364;12.384;2022-12-18T06:14:20;22.87;;;12.47;;
14933;SDS011;7560;51.364;12.384;2022-12-18T06:19:22;26.93;;;11.93;;
14933;SDS011;7560;51.364;12.384;2022-12-18T06:24:24;24.00;;;11.67;;
14933;SDS011;7560;51.364;12.384;2022-12-18T06:29:26;23.27;;;12.40;;
14933;SDS011;7560;51.364;12.384;2022-12-18T06:34:27;23.83;;;11.10;;
14933;SDS011;7560;51.364;12.384;2022-12-18T06:39:29;26.03;;;11.50;;
14933;SDS011;7560;51.364;12.384;2022-12-18T06:44:31;20.97;;;10.83;;
14933;SDS011;7560;51.364;12.384;2022-12-18T06:49:33;26.13;;;12.13;;
14933;SDS011;7560;51.364;12.384;2022-12-18T06:54:35;24.37;;;11.97;;
14933;SDS011;7560;51.364;12.384;2022-12-18T06:59:36;24.03;;;11.07;;
14933;SDS011;7560;51.364;12.384;2022-12-18T07:04:38;27.50;;;12.37;;
14933;SDS011;7560;51.364;12.384;2022-12-18T07:09:40;21.27;;;10.93;;
14933;SDS011;7560;51.364;12.384;2022-12-18T07:14:42;30.57;;;14.03;;
14933;SDS011;7560;51.364;12.384;2022-12-18T07:19:43;19.07;;;10.37;;
14933;SDS011;7560;51.364;12.384;2022-12-18T07:24:45;22.47;;;11.10;;
14933;SDS011;7560;51.364;12.384;2022-12-18T07:29:47;26.30;;;12.07;;
14933;SDS011;7560;51.364;12.384;2022-12-18T07:34:49;26.87;;;12.07;;
14933;SDS011;7560;51.364;12.384;2022-12-18T07:39:50;23.77;;;11.00;;
14933;SDS011;7560;51.364;12.384;2022-12-18T07:44:52;25.67;;;12.50;;
14933;SDS011;7560;51.364;12.384;2022-12-18T07:49:54;27.27;;;11.83;;
14933;SDS011;7560;51.364;12.384;2022-12-18T07:54:56;32.33;;;12.90;;
14933;SDS011;7560;51.364;12.384;2022-12-18T07:59:58;26.83;;;11.80;;
14933;SDS011;7560;51.364;12.384;2022-12-18T08:04:59;26.40;;;12.10;;
14933;SDS011;7560;51.364;12.384;2022-12-18T08:10:01;27.57;;;11.97;;
14933;SDS011;7560;51.364;12.384;2022-12-18T08:15:04;23.77;;;10.93;;
14933;SDS011;7560;51.364;12.384;2022-12-18T08:20:06;20.17;;;10.30;;
14933;SDS011;7560;51.364;12.384;2022-12-18T08:25:08;20.37;;;11.30;;
14933;SDS011;7560;51.364;12.384;2022-12-18T08:30:11;27.07;;;12.13;;
14933;SDS011;7560;51.364;12.384;2022-12-18T08:35:13;23.50;;;10.97;;
14933;SDS011;7560;51.364;12.384;2022-12-18T08:40:18;22.83;;;10.90;;
14933;SDS011;7560;51.364;12.384;2022-12-18T08:45:20;23.30;;;11.00;;
14933;SDS011;7560;51.364;12.384;2022-12-18T08:50:22;24.57;;;11.37;;
14933;SDS011;7560;51.364;12.384;2022-12-18T08:55:23;22.03;;;10.80;;
14933;SDS011;7560;51.364;12.384;2022-12-18T09:00:26;21.60;;;10.77;;
14933;SDS011;7560;51.364;12.384;2022-12-18T09:05:27;22.37;;;10.50;;
14933;SDS011;7560;51.364;12.384;2022-12-18T09:10:29;19.53;;;10.70;;
14933;SDS011;7560;51.364;12.384;2022-12-18T09:15:31;20.07;;;9.07;;
14933;SDS011;7560;51.364;12.384;2022-12-18T09:20:32;18.07;;;10.13;;
14933;SDS011;7560;51.364;12.384;2022-12-18T09:25:34;20.40;;;10.00;;
14933;SDS011;7560;51.364;12.384;2022-12-18T09:30:38;22.40;;;10.87;;
14933;SDS011;7560;51.364;12.384;2022-12-18T09:35:41;17.13;;;9.83;;
14933;SDS011;7560;51.364;12.384;2022-12-18T09:45:50;17.67;;;9.50;;
14933;SDS011;7560;51.364;12.384;2022-12-18T09:50:57;19.80;;;9.57;;
14933;SDS011;7560;51.364;12.384;2022-12-18T09:56:04;19.73;;;10.00;;
14933;SDS011;7560;51.364;12.384;2022-12-18T10:01:25;16.17;;;9.37;;
14933;SDS011;7560;51.364;12.384;2022-12-18T10:06:43;16.37;;;9.00;;
14933;SDS011;7560;51.364;12.384;2022-12-18T10:11:58;17.57;;;9.60;;
14933;SDS011;7560;51.364;12.384;2022-12-18T10:17:28;18.40;;;9.67;;
14933;SDS011;7560;51.364;12.384;2022-12-18T10:27:58;17.17;;;8.90;;
14933;SDS011;7560;51.364;12.384;2022-12-18T10:33:20;14.37;;;7.70;;
14933;SDS011;7560;51.364;12.384;2022-12-18T10:38:28;17.67;;;9.37;;
14933;SDS011;7560;51.364;12.384;2022-12-18T10:43:39;15.30;;;8.83;;
14933;SDS011;7560;51.364;12.384;2022-12-18T10:48:49;18.87;;;9.10;;
14933;SDS011;7560;51.364;12.384;2022-12-18T10:53:57;22.47;;;8.87;;
14933;SDS011;7560;51.364;12.384;2022-12-18T10:59:07;17.23;;;8.53;;
14933;SDS011;7560;51.364;12.384;2022-12-18T11:04:13;18.23;;;9.20;;
14933;SDS011;7560;51.364;12.384;2022-12-18T11:09:22;17.73;;;9.30;;
14933;SDS011;7560;51.364;12.384;2022-12-18T11:14:27;17.00;;;8.80;;
14933;SDS011;7560;51.364;12.384;2022-12-18T11:19:34;15.90;;;8.53;;
14933;SDS011;7560;51.364;12.384;2022-12-18T11:24:38;15.93;;;9.23;;
14933;SDS011;7560;51.364;12.384;2022-12-18T11:29:41;15.83;;;8.30;;
14933;SDS011;7560;51.364;12.384;2022-12-18T11:34:48;15.63;;;8.13;;
14933;SDS011;7560;51.364;12.384;2022-12-18T11:40:00;17.07;;;8.93;;
14933;SDS011;7560;51.364;12.384;2022-12-18T11:45:30;15.90;;;8.93;;
14933;SDS011;7560;51.364;12.384;2022-12-18T11:50:49;17.20;;;8.70;;
14933;SDS011;7560;51.364;12.384;2022-12-18T11:56:02;15.77;;;8.17;;
14933;SDS011;7560;51.364;12.384;2022-12-18T12:01:28;16.27;;;8.87;;
14933;SDS011;7560;51.364;12.384;2022-12-18T12:17:33;16.97;;;8.80;;
14933;SDS011;7560;51.364;12.384;2022-12-18T12:23:00;17.53;;;8.90;;
14933;SDS011;7560;51.364;12.384;2022-12-18T12:39:10;18.20;;;8.63;;
14933;SDS011;7560;51.364;12.384;2022-12-18T12:44:22;13.63;;;8.40;;
14933;SDS011;7560;51.364;12.384;2022-12-18T12:49:29;12.63;;;8.13;;
14933;SDS011;7560;51.364;12.384;2022-12-18T12:54:40;15.93;;;9.20;;
14933;SDS011;7560;51.364;12.384;2022-12-18T12:59:51;15.57;;;8.40;;
14933;SDS011;7560;51.364;12.384;2022-12-18T13:10:53;15.32;;;8.80;;
14933;SDS011;7560;51.364;12.384;2022-12-18T13:16:20;19.35;;;9.50;;
14933;SDS011;7560;51.364;12.384;2022-12-18T13:21:30;18.00;;;9.75;;
14933;SDS011;7560;51.364;12.384;2022-12-18T13:26:34;16.45;;;8.93;;
14933;SDS011;7560;51.364;12.384;2022-12-18T13:36:42;23.00;;;9.67;;
14933;SDS011;7560;51.364;12.384;2022-12-18T13:41:45;19.30;;;9.37;;
14933;SDS011;7560;51.364;12.384;2022-12-18T13:46:48;18.67;;;9.95;;
14933;SDS011;7560;51.364;12.384;2022-12-18T13:51:53;20.55;;;10.65;;
14933;SDS011;7560;51.364;12.384;2022-12-18T13:56:56;15.97;;;9.67;;
14933;SDS011;7560;51.364;12.384;2022-12-18T14:01:59;19.13;;;9.70;;
14933;SDS011;7560;51.364;12.384;2022-12-18T14:07:07;21.93;;;10.93;;
14933;SDS011;7560;51.364;12.384;2022-12-18T14:12:22;25.07;;;11.87;;
14933;SDS011;7560;51.364;12.384;2022-12-18T14:18:36;25.23;;;12.77;;
14933;SDS011;7560;51.364;12.384;2022-12-18T14:28:42;29.93;;;14.60;;
14933;SDS011;7560;51.364;12.384;2022-12-18T14:33:45;28.07;;;13.53;;
14933;SDS011;7560;51.364;12.384;2022-12-18T14:38:51;35.23;;;16.50;;
14933;SDS011;7560;51.364;12.384;2022-12-18T14:44:05;34.20;;;16.47;;
14933;SDS011;7560;51.364;12.384;2022-12-18T14:49:27;30.63;;;15.23;;
14933;SDS011;7560;51.364;12.384;2022-12-18T14:54:33;30.13;;;14.20;;
14933;SDS011;7560;51.364;12.384;2022-12-18T14:59:38;32.47;;;15.23;;
14933;SDS011;7560;51.364;12.384;2022-12-18T15:04:40;28.10;;;13.87;;
14933;SDS011;7560;51.364;12.384;2022-12-18T15:20:50;32.97;;;15.53;;
14933;SDS011;7560;51.364;12.384;2022-12-18T15:36:22;28.97;;;15.13;;
14933;SDS011;7560;51.364;12.384;2022-12-18T15:41:27;43.80;;;19.70;;
14933;SDS011;7560;51.364;12.384;2022-12-18T15:46:28;34.83;;;15.63;;
14933;SDS011;7560;51.364;12.384;2022-12-18T15:51:32;33.83;;;15.90;;
14933;SDS011;7560;51.364;12.384;2022-12-18T15:56:36;32.50;;;15.10;;
14933;SDS011;7560;51.364;12.384;2022-12-18T16:01:57;36.97;;;15.97;;
14933;SDS011;7560;51.364;12.384;2022-12-18T16:06:59;30.27;;;15.23;;
14933;SDS011;7560;51.364;12.384;2022-12-18T16:12:21;34.20;;;16.93;;
14933;SDS011;7560;51.364;12.384;2022-12-18T16:17:25;34.37;;;15.97;;
14933;SDS011;7560;51.364;12.384;2022-12-18T16:22:28;32.87;;;16.53;;
14933;SDS011;7560;51.364;12.384;2022-12-18T16:27:31;36.90;;;16.40;;
14933;SDS011;7560;51.364;12.384;2022-12-18T16:32:33;35.33;;;15.50;;
14933;SDS011;7560;51.364;12.384;2022-12-18T16:37:35;32.90;;;15.17;;
14933;SDS011;7560;51.364;12.384;2022-12-18T16:42:37;32.43;;;15.90;;
14933;SDS011;7560;51.364;12.384;2022-12-18T16:47:40;33.73;;;15.87;;
14933;SDS011;7560;51.364;12.384;2022-12-18T16:52:42;33.53;;;15.60;;
14933;SDS011;7560;51.364;12.384;2022-12-18T16:57:44;36.90;;;16.93;;
14933;SDS011;7560;51.364;12.384;2022-12-18T17:02:45;40.80;;;16.93;;
14933;SDS011;7560;51.364;12.384;2022-12-18T17:07:48;34.10;;;16.23;;
14933;SDS011;7560;51.364;12.384;2022-12-18T17:12:50;40.13;;;16.37;;
14933;SDS011;7560;51.364;12.384;2022-12-18T17:17:52;33.93;;;15.63;;
14933;SDS011;7560;51.364;12.384;2022-12-18T17:22:54;35.03;;;16.33;;
14933;SDS011;7560;51.364;12.384;2022-12-18T17:27:57;32.97;;;15.97;;
14933;SDS011;7560;51.364;12.384;2022-12-18T17:32:59;28.20;;;13.00;;
14933;SDS011;7560;51.364;12.384;2022-12-18T17:38:01;37.27;;;14.70;;
14933;SDS011;7560;51.364;12.384;2022-12-18T17:43:03;27.07;;;13.23;;
14933;SDS011;7560;51.364;12.384;2022-12-18T17:48:05;32.47;;;13.97;;
14933;SDS011;7560;51.364;12.384;2022-12-18T17:53:08;32.13;;;15.27;;
14933;SDS011;7560;51.364;12.384;2022-12-18T17:58:10;30.10;;;15.00;;
14933;SDS011;7560;51.364;12.384;2022-12-18T18:03:11;31.73;;;15.10;;
14933;SDS011;7560;51.364;12.384;2022-12-18T18:08:14;28.93;;;13.57;;
14933;SDS011;7560;51.364;12.384;2022-12-18T18:18:47;30.10;;;14.53;;
14933;SDS011;7560;51.364;12.384;2022-12-18T18:23:49;47.77;;;20.27;;
14933;SDS011;7560;51.364;12.384;2022-12-18T18:28:53;51.50;;;18.53;;
14933;SDS011;7560;51.364;12.384;2022-12-18T18:33:55;32.40;;;14.70;;
14933;SDS011;7560;51.364;12.384;2022-12-18T18:38:58;25.33;;;13.27;;
14933;SDS011;7560;51.364;12.384;2022-12-18T18:44:03;26.87;;;14.03;;
14933;SDS011;7560;51.364;12.384;2022-12-18T18:49:05;27.90;;;12.90;;
14933;SDS011;7560;51.364;12.384;2022-12-18T18:54:07;25.97;;;12.77;;
14933;SDS011;7560;51.364;12.384;2022-12-18T18:59:09;29.40;;;13.63;;
14933;SDS011;7560;51.364;12.384;2022-12-18T19:04:11;25.87;;;12.53;;
14933;SDS011;7560;51.364;12.384;2022-12-18T19:09:13;24.20;;;11.70;;
14933;SDS011;7560;51.364;12.384;2022-12-18T19:14:15;25.73;;;12.50;;
14933;SDS011;7560;51.364;12.384;2022-12-18T19:19:17;25.17;;;11.83;;
14933;SDS011;7560;51.364;12.384;2022-12-18T19:24:23;25.83;;;11.20;;
14933;SDS011;7560;51.364;12.384;2022-12-18T19:29:25;22.00;;;10.60;;
14933;SDS011;7560;51.364;12.384;2022-12-18T19:34:27;19.93;;;9.43;;
14933;SDS011;7560;51.364;12.384;2022-12-18T19:39:29;18.43;;;9.53;;
14933;SDS011;7560;51.364;12.384;2022-12-18T19:44:31;17.37;;;9.17;;
14933;SDS011;7560;51.364;12.384;2022-12-18T19:49:33;20.13;;;9.07;;
14933;SDS011;7560;51.364;12.384;2022-12-18T19:54:35;21.15;;;10.02;;
14933;SDS011;7560;51.364;12.384;2022-12-18T19:59:37;22.60;;;9.75;;
14933;SDS011;7560;51.364;12.384;2022-12-18T20:04:40;20.23;;;9.47;;
14933;SDS011;7560;51.364;12.384;2022-12-18T20:09:42;19.80;;;9.57;;
14933;SDS011;7560;51.364;12.384;2022-12-18T20:14:44;22.03;;;10.53;;
14933;SDS011;7560;51.364;12.384;2022-12-18T20:19:46;24.63;;;10.33;;
14933;SDS011;7560;51.364;12.384;2022-12-18T20:24:48;22.20;;;10.40;;
14933;SDS011;7560;51.364;12.384;2022-12-18T20:29:50;21.73;;;10.93;;
14933;SDS011;7560;51.364;12.384;2022-12-18T20:34:52;21.20;;;10.27;;
14933;SDS011;7560;51.364;12.384;2022-12-18T20:39:54;22.60;;;10.03;;
14933;SDS011;7560;51.364;12.384;2022-12-18T20:44:56;22.00;;;10.97;;
14933;SDS011;7560;51.364;12.384;2022-12-18T20:49:58;22.08;;;10.48;;
14933;SDS011;7560;51.364;12.384;2022-12-18T20:55:00;22.80;;;10.32;;
14933;SDS011;7560;51.364;12.384;2022-12-18T21:00:06;24.63;;;12.05;;
14933;SDS011;7560;51.364;12.384;2022-12-18T21:05:09;19.13;;;9.80;;
14933;SDS011;7560;51.364;12.384;2022-12-18T21:10:10;21.90;;;9.80;;
14933;SDS011;7560;51.364;12.384;2022-12-18T21:15:12;23.00;;;10.45;;
14933;SDS011;7560;51.364;12.384;2022-12-18T21:20:14;22.50;;;10.82;;
14933;SDS011;7560;51.364;12.384;2022-12-18T21:25:19;23.52;;;10.82;;
14933;SDS011;7560;51.364;12.384;2022-12-18T21:30:20;21.52;;;10.38;;
14933;SDS011;7560;51.364;12.384;2022-12-18T21:35:22;20.50;;;9.60;;
14933;SDS011;7560;51.364;12.384;2022-12-18T21:40:26;20.00;;;9.10;;
14933;SDS011;7560;51.364;12.384;2022-12-18T21:45:28;18.88;;;9.23;;
14933;SDS011;7560;51.364;12.384;2022-12-18T21:50:30;24.77;;;9.30;;
14933;SDS011;7560;51.364;12.384;2022-12-18T21:55:32;20.70;;;9.43;;
14933;SDS011;7560;51.364;12.384;2022-12-18T22:00:34;20.80;;;9.95;;
14933;SDS011;7560;51.364;12.384;2022-12-18T22:05:36;23.20;;;9.50;;
14933;SDS011;7560;51.364;12.384;2022-12-18T22:10:38;22.50;;;8.93;;
14933;SDS011;7560;51.364;12.384;2022-12-18T22:15:40;20.67;;;9.32;;
14933;SDS011;7560;51.364;12.384;2022-12-18T22:20:42;21.23;;;9.75;;
14933;SDS011;7560;51.364;12.384;2022-12-18T22:25:44;21.48;;;10.50;;
14933;SDS011;7560;51.364;12.384;2022-12-18T22:30:45;25.05;;;11.80;;
14933;SDS011;7560;51.364;12.384;2022-12-18T22:35:48;24.25;;;10.98;;
14933;SDS011;7560;51.364;12.384;2022-12-18T22:40:50;23.63;;;10.57;;
14933;SDS011;7560;51.364;12.384;2022-12-18T22:45:52;24.95;;;10.80;;
14933;SDS011;7560;51.364;12.384;2022-12-18T22:50:55;26.98;;;11.38;;
14933;SDS011;7560;51.364;12.384;2022-12-18T22:56:00;30.00;;;12.07;;
14933;SDS011;7560;51.364;12.384;2022-12-18T23:01:02;22.33;;;10.07;;
14933;SDS011;7560;51.364;12.384;2022-12-18T23:06:06;21.35;;;10.30;;
14933;SDS011;7560;51.364;12.384;2022-12-18T23:11:09;21.42;;;10.55;;
14933;SDS011;7560;51.364;12.384;2022-12-18T23:16:13;23.20;;;10.45;;
14933;SDS011;7560;51.364;12.384;2022-12-18T23:21:17;24.13;;;10.70;;
14933;SDS011;7560;51.364;12.384;2022-12-18T23:26:22;22.83;;;10.98;;
14933;SDS011;7560;51.364;12.384;2022-12-18T23:31:28;20.38;;;9.73;;
14933;SDS011;7560;51.364;12.384;2022-12-18T23:36:34;22.13;;;9.93;;
14933;SDS011;7560;51.364;12.384;2022-12-18T23:41:47;23.67;;;10.15;;
14933;SDS011;7560;51.364;12.384;2022-12-18T23:46:48;22.90;;;10.50;;
14933;SDS011;7560;51.364;12.384;2022-12-18T23:51:52;21.85;;;10.20;;
14933;SDS011;7560;51.364;12.384;2022-12-18T23:56:55;23.98;;;10.20;;
